createdAt,value
2018-04-08T00:01:01.017Z,87.86
2018-04-08T00:03:27.405Z,89.14
2018-04-08T00:05:53.738Z,88.56
2018-04-08T00:08:20.097Z,88.39
2018-04-08T00:10:46.413Z,86.31
2018-04-08T00:13:12.846Z,86.14
2018-04-08T00:15:39.306Z,86.98
2018-04-08T00:18:05.726Z,86.69
2018-04-08T00:20:32.120Z,87.42
2018-04-08T00:22:58.506Z,88.06
2018-04-08T00:25:24.906Z,87.72
2018-04-08T00:27:51.298Z,88.59
2018-04-08T00:30:17.957Z,89.13
2018-04-08T00:32:44.310Z,88.81
2018-04-08T00:35:10.864Z,88.88
2018-04-08T00:37:37.234Z,89.07
2018-04-08T00:40:03.645Z,89.54
2018-04-08T00:42:30.047Z,89.95
2018-04-08T00:44:56.441Z,88.90
2018-04-08T00:47:22.903Z,88.84
2018-04-08T00:49:49.285Z,89.25
2018-04-08T00:52:15.787Z,89.62
2018-04-08T00:54:42.320Z,89.69
2018-04-08T00:57:08.798Z,90.56
2018-04-08T00:59:35.209Z,90.35
2018-04-08T01:02:01.551Z,91.09
2018-04-08T01:04:28.090Z,90.65
2018-04-08T01:06:54.495Z,91.01
2018-04-08T01:09:20.902Z,90.88
2018-04-08T01:11:47.341Z,91.07
2018-04-08T01:14:13.776Z,91.99
2018-04-08T01:16:40.252Z,91.40
2018-04-08T01:19:06.638Z,92.22
2018-04-08T01:21:33.062Z,91.02
2018-04-08T01:23:59.502Z,91.63
2018-04-08T01:26:25.928Z,91.92
2018-04-08T01:28:52.409Z,92.45
2018-04-08T01:31:18.784Z,93.00
2018-04-08T01:33:45.231Z,93.21
2018-04-08T01:36:11.684Z,92.78
2018-04-08T01:38:38.043Z,92.09
2018-04-08T01:41:04.447Z,93.17
2018-04-08T01:43:30.952Z,93.05
2018-04-08T01:45:57.295Z,94.02
2018-04-08T01:48:23.703Z,93.11
2018-04-08T01:50:50.109Z,94.11
2018-04-08T01:53:16.526Z,94.29
2018-04-08T01:55:42.881Z,93.07
2018-04-08T01:58:09.316Z,92.76
2018-04-08T02:00:35.663Z,93.09
2018-04-08T02:03:02.006Z,93.11
2018-04-08T02:05:28.416Z,92.41
2018-04-08T02:07:54.845Z,92.69
2018-04-08T02:10:21.292Z,92.72
2018-04-08T02:12:47.681Z,93.01
2018-04-08T02:15:14.025Z,92.52
2018-04-08T02:17:40.323Z,93.79
2018-04-08T02:20:06.732Z,94.37
2018-04-08T02:22:33.125Z,94.41
2018-04-08T02:24:59.570Z,94.85
2018-04-08T02:27:25.953Z,94.73
2018-04-08T02:29:52.326Z,94.93
2018-04-08T02:32:18.644Z,94.50
2018-04-08T02:34:45.101Z,93.73
2018-04-08T02:37:11.479Z,93.86
2018-04-08T02:39:37.933Z,94.21
2018-04-08T02:42:04.275Z,94.36
2018-04-08T02:44:30.650Z,94.02
2018-04-08T02:46:56.958Z,93.70
2018-04-08T02:49:23.390Z,94.37
2018-04-08T02:51:49.732Z,94.59
2018-04-08T02:54:16.143Z,94.31
2018-04-08T02:56:42.548Z,93.97
2018-04-08T02:59:08.889Z,94.40
2018-04-08T03:01:35.232Z,93.75
2018-04-08T03:04:01.762Z,93.94
2018-04-08T03:06:28.113Z,95.26
2018-04-08T03:08:54.457Z,94.92
2018-04-08T03:11:20.841Z,94.70
2018-04-08T03:13:47.186Z,94.26
2018-04-08T03:16:13.534Z,94.28
2018-04-08T03:18:39.959Z,94.59
2018-04-08T03:21:06.395Z,94.36
2018-04-08T03:23:32.725Z,95.07
2018-04-08T03:25:59.092Z,95.40
2018-04-08T03:28:25.482Z,95.31
2018-04-08T03:30:51.838Z,95.70
2018-04-08T03:33:18.183Z,96.73
2018-04-08T03:35:44.600Z,96.11
2018-04-08T03:38:10.999Z,95.31
2018-04-08T03:40:37.439Z,94.63
2018-04-08T03:43:03.796Z,95.18
2018-04-08T03:45:30.170Z,96.60
2018-04-08T03:47:56.549Z,95.21
2018-04-08T03:50:22.908Z,95.56
2018-04-08T03:52:49.240Z,95.95
2018-04-08T03:55:15.774Z,96.11
2018-04-08T03:57:42.117Z,96.55
2018-04-08T04:00:08.502Z,96.27
2018-04-08T04:02:35.045Z,96.03
2018-04-08T04:05:02.629Z,96.53
2018-04-08T04:07:29.300Z,95.21
2018-04-08T04:09:55.689Z,95.24
2018-04-08T04:12:22.086Z,95.35
2018-04-08T04:14:48.562Z,92.32
2018-04-08T04:17:15.018Z,93.78
2018-04-08T04:19:53.747Z,94.79
2018-04-08T04:22:32.507Z,95.80
2018-04-08T04:25:11.012Z,96.15
2018-04-08T04:27:37.680Z,95.10
2018-04-08T04:30:04.154Z,92.68
2018-04-08T04:32:30.547Z,89.40
2018-04-08T04:34:57.012Z,85.91
2018-04-08T04:37:23.430Z,83.46
2018-04-08T04:39:49.776Z,81.00
2018-04-08T04:42:16.231Z,76.34
2018-04-08T04:44:42.874Z,74.14
2018-04-08T04:47:09.259Z,71.12
2018-04-08T04:49:35.610Z,71.24
2018-04-08T04:52:01.996Z,68.26
2018-04-08T04:54:28.687Z,68.76
2018-04-08T04:56:55.387Z,67.34
2018-04-08T04:59:21.807Z,61.75
2018-04-08T05:01:48.303Z,67.03
2018-04-08T05:04:14.828Z,63.68
2018-04-08T05:06:41.238Z,61.62
2018-04-08T05:09:07.594Z,58.95
2018-04-08T05:11:33.987Z,62.25
2018-04-08T05:14:00.531Z,58.32
2018-04-08T05:16:26.963Z,64.07
2018-04-08T05:18:53.357Z,57.94
2018-04-08T05:21:19.818Z,60.59
2018-04-08T05:23:46.265Z,58.25
2018-04-08T05:26:12.751Z,59.36
2018-04-08T05:28:39.182Z,63.99
2018-04-08T05:31:05.595Z,62.53
2018-04-08T05:33:31.932Z,58.75
2018-04-08T05:36:00.237Z,60.25
2018-04-08T05:38:27.739Z,57.17
2018-04-08T05:40:54.948Z,57.92
2018-04-08T05:43:21.418Z,58.19
2018-04-08T05:45:47.790Z,55.63
2018-04-08T05:48:14.372Z,59.44
2018-04-08T05:50:40.915Z,53.37
2018-04-08T05:53:07.320Z,53.32
2018-04-08T05:55:33.751Z,54.55
2018-04-08T05:58:00.508Z,57.04
2018-04-08T06:00:26.987Z,57.03
2018-04-08T06:02:53.565Z,55.92
2018-04-08T06:05:20.374Z,57.19
2018-04-08T06:07:47.160Z,54.96
2018-04-08T06:10:13.693Z,57.32
2018-04-08T06:12:40.265Z,59.68
2018-04-08T06:15:07.009Z,60.40
2018-04-08T06:17:35.539Z,58.55
2018-04-08T06:20:02.345Z,61.23
2018-04-08T06:22:29.220Z,60.21
2018-04-08T06:24:55.986Z,57.80
2018-04-08T06:27:22.786Z,60.29
2018-04-08T06:29:49.333Z,59.60
2018-04-08T06:32:17.204Z,59.22
2018-04-08T06:34:44.251Z,58.15
2018-04-08T06:37:10.791Z,60.32
2018-04-08T06:39:37.311Z,60.63
2018-04-08T06:42:03.821Z,61.15
2018-04-08T06:44:30.324Z,59.87
2018-04-08T06:46:56.825Z,60.76
2018-04-08T06:49:23.664Z,55.35
2018-04-08T06:51:50.275Z,58.88
2018-04-08T06:54:16.748Z,58.45
2018-04-08T06:56:43.267Z,58.31
2018-04-08T06:59:09.669Z,56.89
2018-04-08T07:01:36.156Z,57.12
2018-04-08T07:04:02.935Z,55.77
2018-04-08T07:06:29.391Z,55.38
2018-04-08T07:08:55.882Z,58.07
2018-04-08T07:11:22.463Z,54.68
2018-04-08T07:13:49.611Z,55.04
2018-04-08T07:16:16.426Z,57.00
2018-04-08T07:18:42.977Z,58.22
2018-04-08T07:21:10.103Z,57.24
2018-04-08T07:23:36.842Z,59.81
2018-04-08T07:26:04.179Z,57.16
2018-04-08T07:28:30.664Z,57.87
2018-04-08T07:30:57.149Z,56.46
2018-04-08T07:33:23.736Z,57.25
2018-04-08T07:35:50.198Z,56.52
2018-04-08T07:38:16.704Z,55.98
2018-04-08T07:40:43.192Z,53.58
2018-04-08T07:43:09.835Z,54.84
2018-04-08T07:45:36.687Z,53.56
2018-04-08T07:48:03.244Z,52.32
2018-04-08T07:50:29.821Z,53.40
2018-04-08T07:52:56.422Z,54.27
2018-04-08T07:55:25.303Z,54.19
2018-04-08T07:57:52.219Z,53.51
2018-04-08T08:00:18.953Z,53.72
2018-04-08T08:02:45.495Z,56.13
2018-04-08T08:05:12.338Z,51.13
2018-04-08T08:07:39.033Z,50.14
2018-04-08T08:10:05.791Z,52.21
2018-04-08T08:12:32.866Z,52.37
2018-04-08T08:14:59.572Z,53.74
2018-04-08T08:17:26.175Z,49.70
2018-04-08T08:19:53.012Z,47.24
2018-04-08T08:22:20.325Z,49.08
2018-04-08T08:24:46.933Z,47.95
2018-04-08T08:27:13.419Z,49.46
2018-04-08T08:29:41.923Z,47.19
2018-04-08T08:32:08.598Z,44.33
2018-04-08T08:34:35.173Z,49.34
2018-04-08T08:37:02.350Z,42.72
2018-04-08T08:39:29.346Z,45.08
2018-04-08T08:41:55.884Z,45.85
2018-04-08T08:44:22.492Z,46.37
2018-04-08T08:46:50.091Z,43.09
2018-04-08T08:49:16.625Z,43.51
2018-04-08T08:51:43.110Z,44.81
2018-04-08T08:54:09.555Z,43.99
2018-04-08T08:56:36.245Z,42.83
2018-04-08T08:59:03.042Z,41.23
2018-04-08T09:01:29.638Z,42.12
2018-04-08T09:03:56.454Z,40.54
2018-04-08T09:06:22.910Z,42.12
2018-04-08T09:08:49.471Z,42.97
2018-04-08T09:11:15.893Z,39.39
2018-04-08T09:13:42.408Z,37.69
2018-04-08T09:16:09.219Z,37.20
2018-04-08T09:18:35.744Z,41.59
2018-04-08T09:24:13.595Z,38.36
2018-04-08T09:26:40.344Z,36.84
2018-04-08T09:29:06.842Z,40.41
2018-04-08T09:31:33.537Z,37.02
2018-04-08T09:34:00.418Z,44.26
2018-04-08T09:36:27.122Z,40.63
2018-04-08T09:38:53.493Z,41.73
2018-04-08T09:41:20.495Z,41.05
2018-04-08T09:43:46.986Z,39.43
2018-04-08T09:46:13.375Z,41.54
2018-04-08T09:48:39.873Z,39.15
2018-04-08T09:51:06.663Z,37.77
2018-04-08T09:53:33.982Z,37.53
2018-04-08T09:56:00.621Z,40.93
2018-04-08T09:58:27.805Z,38.46
2018-04-08T10:01:14.058Z,41.54
2018-04-08T10:03:49.008Z,39.06
2018-04-08T10:06:15.611Z,40.97
2018-04-08T10:08:42.524Z,38.11
2018-04-08T10:11:09.120Z,38.75
2018-04-08T10:13:35.649Z,35.23
2018-04-08T10:16:02.459Z,33.82
2018-04-08T10:18:28.961Z,38.32
2018-04-08T10:20:55.522Z,30.62
2018-04-08T10:23:22.143Z,37.70
2018-04-08T10:25:48.674Z,35.56
2018-04-08T10:28:15.328Z,39.14
2018-04-08T10:30:42.012Z,32.11
2018-04-08T10:33:08.381Z,35.70
2018-04-08T10:35:34.902Z,32.53
2018-04-08T10:38:01.406Z,34.34
2018-04-08T10:40:28.121Z,30.93
2018-04-08T10:42:54.562Z,28.27
2018-04-08T10:45:21.003Z,26.77
2018-04-08T10:47:47.596Z,26.31
2018-04-08T10:50:14.219Z,28.47
2018-04-08T10:52:41.351Z,26.34
2018-04-08T10:55:08.919Z,25.48
2018-04-08T10:57:35.961Z,26.40
2018-04-08T11:00:02.776Z,24.94
2018-04-08T11:02:30.103Z,26.25
2018-04-08T11:04:56.653Z,25.30
2018-04-08T11:07:24.092Z,28.41
2018-04-08T11:09:50.698Z,28.22
2018-04-08T11:12:17.806Z,26.55
2018-04-08T11:14:44.425Z,28.16
2018-04-08T11:17:10.884Z,28.01
2018-04-08T11:19:37.465Z,27.10
2018-04-08T11:22:04.249Z,26.24
2018-04-08T11:24:30.818Z,27.16
2018-04-08T11:26:57.449Z,27.40
2018-04-08T11:29:23.926Z,26.88
2018-04-08T11:31:50.291Z,28.35
2018-04-08T11:34:16.838Z,31.34
2018-04-08T11:36:44.944Z,26.74
2018-04-08T11:39:11.383Z,27.55
2018-04-08T11:41:37.855Z,26.42
2018-04-08T11:44:04.759Z,26.46
2018-04-08T11:46:31.263Z,29.62
2018-04-08T11:48:57.684Z,26.89
2018-04-08T11:51:24.535Z,31.12
2018-04-08T11:53:51.200Z,28.14
2018-04-08T11:56:17.662Z,28.17
2018-04-08T11:58:44.200Z,28.86
2018-04-08T12:01:10.792Z,26.31
2018-04-08T12:03:37.486Z,28.17
2018-04-08T12:06:04.140Z,27.63
2018-04-08T12:08:30.729Z,27.28
2018-04-08T12:10:57.562Z,28.91
2018-04-08T12:13:24.212Z,27.99
2018-04-08T12:15:50.801Z,28.65
2018-04-08T12:18:17.297Z,29.98
2018-04-08T12:20:43.741Z,27.64
2018-04-08T12:23:10.591Z,27.35
2018-04-08T12:25:37.135Z,27.99
2018-04-08T12:28:04.489Z,25.07
2018-04-08T12:30:31.198Z,26.14
2018-04-08T12:32:57.702Z,27.57
2018-04-08T12:35:24.087Z,26.03
2018-04-08T12:37:50.584Z,26.52
2018-04-08T12:40:17.113Z,26.38
2018-04-08T12:42:43.698Z,25.83
2018-04-08T12:45:10.912Z,27.86
2018-04-08T12:47:37.498Z,25.47
2018-04-08T12:50:04.154Z,26.56
2018-04-08T12:52:30.906Z,26.18
2018-04-08T12:54:58.137Z,26.13
2018-04-08T12:57:24.688Z,27.87
2018-04-08T12:59:51.157Z,26.22
2018-04-08T13:02:17.839Z,26.42
2018-04-08T13:04:44.729Z,25.46
2018-04-08T13:07:11.288Z,26.88
2018-04-08T13:09:38.952Z,25.80
2018-04-08T13:12:05.487Z,28.00
2018-04-08T13:14:32.645Z,28.59
2018-04-08T13:16:59.327Z,27.12
2018-04-08T13:19:26.120Z,26.05
2018-04-08T13:21:52.983Z,27.23
2018-04-08T13:24:19.473Z,26.33
2018-04-08T13:26:46.147Z,26.21
2018-04-08T13:29:12.770Z,25.55
2018-04-08T13:31:39.221Z,25.84
2018-04-08T13:34:05.646Z,25.17
2018-04-08T13:36:32.223Z,26.46
2018-04-08T13:38:58.864Z,25.91
2018-04-08T13:41:25.353Z,26.14
2018-04-08T13:43:51.843Z,25.77
2018-04-08T13:46:18.312Z,26.80
2018-04-08T13:48:44.676Z,27.88
2018-04-08T13:51:11.192Z,27.85
2018-04-08T13:53:37.992Z,28.91
2018-04-08T13:56:04.512Z,27.24
2018-04-08T13:58:31.058Z,27.41
2018-04-08T14:00:57.860Z,28.12
2018-04-08T14:03:24.539Z,27.39
2018-04-08T14:05:51.081Z,29.18
2018-04-08T14:08:17.600Z,27.88
2018-04-08T14:10:44.067Z,27.09
2018-04-08T14:13:10.689Z,27.73
2018-04-08T14:15:37.225Z,26.75
2018-04-08T14:18:03.910Z,27.48
2018-04-08T14:20:30.424Z,27.83
2018-04-08T14:22:57.019Z,28.40
2018-04-08T14:25:23.639Z,28.21
2018-04-08T14:27:50.164Z,31.37
2018-04-08T14:30:16.697Z,28.17
2018-04-08T14:32:43.104Z,27.73
2018-04-08T14:35:09.940Z,29.85
2018-04-08T14:37:36.491Z,27.96
2018-04-08T14:40:04.086Z,27.41
2018-04-08T14:42:31.257Z,27.08
2018-04-08T14:44:58.443Z,27.11
2018-04-08T14:47:25.230Z,27.68
2018-04-08T14:49:53.963Z,26.82
2018-04-08T14:52:21.021Z,26.82
2018-04-08T14:54:47.713Z,27.47
2018-04-08T14:57:14.292Z,27.33
2018-04-08T14:59:40.807Z,26.54
2018-04-08T15:02:07.980Z,27.83
2018-04-08T15:04:34.833Z,27.69
2018-04-08T15:07:01.314Z,26.90
2018-04-08T15:09:28.221Z,27.67
2018-04-08T15:11:55.090Z,28.38
2018-04-08T15:14:21.701Z,28.84
2018-04-08T15:16:48.302Z,27.66
2018-04-08T15:19:14.920Z,27.13
2018-04-08T15:21:41.457Z,28.18
2018-04-08T15:24:08.213Z,27.34
2018-04-08T15:26:34.745Z,27.27
2018-04-08T15:29:01.497Z,27.75
2018-04-08T15:31:27.917Z,28.12
2018-04-08T15:33:54.554Z,28.77
2018-04-08T15:36:21.280Z,28.56
2018-04-08T15:38:47.867Z,30.36
2018-04-08T15:41:14.710Z,28.33
2018-04-08T15:43:41.296Z,28.86
2018-04-08T15:46:07.822Z,28.02
2018-04-08T15:48:34.515Z,28.22
2018-04-08T15:51:01.063Z,28.97
2018-04-08T15:53:27.507Z,27.43
2018-04-08T15:55:54.266Z,28.47
2018-04-08T15:58:21.115Z,29.55
2018-04-08T16:00:48.589Z,29.43
2018-04-08T16:03:16.834Z,27.42
2018-04-08T16:05:43.662Z,27.47
2018-04-08T16:08:10.074Z,26.77
2018-04-08T16:10:36.708Z,29.39
2018-04-08T16:13:03.346Z,29.43
2018-04-08T16:15:29.812Z,28.43
2018-04-08T16:17:56.477Z,27.64
2018-04-08T16:20:23.870Z,29.27
2018-04-08T16:22:50.962Z,28.23
2018-04-08T16:25:17.411Z,28.84
2018-04-08T16:27:43.970Z,29.11
2018-04-08T16:30:10.651Z,29.89
2018-04-08T16:32:37.326Z,29.22
2018-04-08T16:35:03.970Z,29.33
2018-04-08T16:37:31.048Z,28.85
2018-04-08T16:39:57.644Z,27.23
2018-04-08T16:42:24.351Z,28.42
2018-04-08T16:44:50.704Z,29.40
2018-04-08T16:47:17.309Z,27.57
2018-04-08T16:49:43.750Z,27.61
2018-04-08T16:52:10.109Z,27.23
2018-04-08T16:54:36.637Z,28.43
2018-04-08T16:57:03.321Z,30.12
2018-04-08T16:59:29.837Z,27.46
2018-04-08T17:01:56.836Z,30.03
2018-04-08T17:04:23.376Z,28.92
2018-04-08T17:06:49.923Z,28.66
2018-04-08T17:09:16.422Z,28.36
2018-04-08T17:11:43.077Z,32.92
2018-04-08T17:14:09.851Z,31.37
2018-04-08T17:16:36.392Z,32.57
2018-04-08T17:19:03.777Z,34.66
2018-04-08T17:21:30.401Z,38.71
2018-04-08T17:23:56.863Z,40.98
2018-04-08T17:26:23.546Z,39.90
2018-04-08T17:28:51.467Z,38.90
2018-04-08T17:31:18.343Z,33.32
2018-04-08T17:33:45.472Z,35.74
2018-04-08T17:36:12.211Z,29.27
2018-04-08T17:38:39.700Z,29.82
2018-04-08T17:41:06.405Z,30.73
2018-04-08T17:43:34.312Z,33.79
2018-04-08T17:46:00.939Z,36.87
2018-04-08T17:48:27.433Z,33.83
2018-04-08T17:50:53.813Z,34.40
2018-04-08T17:53:20.543Z,34.46
2018-04-08T17:55:47.224Z,29.20
2018-04-08T17:58:13.717Z,27.79
2018-04-08T18:00:40.677Z,28.82
2018-04-08T18:03:07.503Z,31.05
2018-04-08T18:05:34.025Z,31.14
2018-04-08T18:08:00.553Z,30.18
2018-04-08T18:10:27.059Z,31.72
2018-04-08T18:13:00.421Z,37.53
2018-04-08T18:15:29.083Z,38.87
2018-04-08T18:17:55.534Z,40.53
2018-04-08T18:20:24.186Z,37.47
2018-04-08T18:22:51.388Z,41.45
2018-04-08T18:25:18.348Z,38.03
2018-04-08T18:27:44.913Z,36.06
2018-04-08T18:30:11.523Z,38.48
2018-04-08T18:32:38.066Z,35.07
2018-04-08T18:35:04.521Z,37.14
2018-04-08T18:37:31.420Z,41.71
2018-04-08T18:40:02.521Z,40.11
2018-04-08T18:42:30.529Z,39.99
2018-04-08T18:44:56.975Z,42.13
2018-04-08T18:47:23.444Z,40.63
2018-04-08T18:49:50.012Z,43.54
2018-04-08T18:52:16.427Z,48.99
2018-04-08T18:54:42.907Z,41.03
2018-04-08T18:57:09.506Z,42.60
2018-04-08T18:59:36.328Z,43.32
2018-04-08T19:02:03.043Z,43.86
2018-04-08T19:04:30.307Z,48.28
2018-04-08T19:06:57.184Z,47.20
2018-04-08T19:09:23.916Z,50.27
2018-04-08T19:11:50.731Z,54.62
2018-04-08T19:14:19.300Z,48.59
2018-04-08T19:16:51.007Z,50.50
2018-04-08T19:19:22.008Z,53.41
2018-04-08T19:21:48.989Z,55.09
2018-04-08T19:24:19.534Z,57.15
2018-04-08T19:26:47.277Z,56.94
2018-04-08T19:29:13.951Z,57.02
2018-04-08T19:31:40.464Z,58.63
2018-04-08T19:34:07.127Z,56.74
2018-04-08T19:36:33.847Z,58.46
2018-04-08T19:39:00.335Z,58.28
2018-04-08T19:41:26.829Z,59.51
2018-04-08T19:43:53.559Z,60.89
2018-04-08T19:46:20.174Z,60.60
2018-04-08T19:48:46.925Z,62.50
2018-04-08T19:51:13.555Z,60.79
2018-04-08T19:53:40.170Z,61.90
2018-04-08T19:56:06.910Z,59.10
2018-04-08T19:58:33.490Z,63.92
2018-04-08T20:00:59.993Z,64.71
2018-04-08T20:03:26.578Z,65.70
2018-04-08T20:05:53.065Z,66.04
2018-04-08T20:08:19.845Z,65.93
2018-04-08T20:10:46.843Z,64.59
2018-04-08T20:13:13.413Z,62.64
2018-04-08T20:15:40.382Z,66.47
2018-04-08T20:18:08.292Z,64.99
2018-04-08T20:20:36.452Z,62.51
2018-04-08T20:23:04.055Z,67.06
2018-04-08T20:25:31.858Z,66.98
2018-04-08T20:27:58.514Z,66.43
2018-04-08T20:30:25.008Z,66.45
2018-04-08T20:32:51.579Z,67.28
2018-04-08T20:35:18.171Z,67.48
2018-04-08T20:37:44.925Z,66.99
2018-04-08T20:40:11.420Z,68.06
2018-04-08T20:42:37.925Z,70.30
2018-04-08T20:45:04.328Z,65.57
2018-04-08T20:47:30.977Z,63.21
2018-04-08T20:49:57.411Z,59.17
2018-04-08T20:52:23.839Z,61.31
2018-04-08T20:54:50.287Z,62.63
2018-04-08T20:57:18.349Z,64.25
2018-04-08T20:59:45.505Z,64.96
2018-04-08T21:02:12.085Z,63.59
2018-04-08T21:04:38.693Z,68.32
2018-04-08T21:07:05.275Z,67.98
2018-04-08T21:09:31.753Z,66.68
2018-04-08T21:11:58.236Z,65.35
2018-04-08T21:14:24.591Z,65.91
2018-04-08T21:16:51.049Z,63.97
2018-04-08T21:19:17.657Z,66.82
2018-04-08T21:21:44.214Z,65.02
2018-04-08T21:24:10.915Z,64.34
2018-04-08T21:26:37.371Z,64.71
2018-04-08T21:29:03.865Z,68.21
2018-04-08T21:31:30.278Z,66.82
2018-04-08T21:33:56.706Z,69.16
2018-04-08T21:36:23.248Z,64.80
2018-04-08T21:38:49.706Z,67.02
2018-04-08T21:41:16.242Z,68.13
2018-04-08T21:43:42.965Z,68.50
2018-04-08T21:46:09.854Z,69.80
2018-04-08T21:48:37.162Z,70.79
2018-04-08T21:51:03.766Z,70.35
2018-04-08T21:53:30.343Z,70.88
2018-04-08T21:55:57.070Z,71.67
2018-04-08T21:58:23.667Z,68.80
2018-04-08T22:00:50.798Z,71.57
2018-04-08T22:03:17.687Z,71.23
2018-04-08T22:05:44.965Z,74.90
2018-04-08T22:08:11.827Z,75.29
2018-04-08T22:10:39.176Z,73.65
2018-04-08T22:13:06.128Z,76.38
2018-04-08T22:15:32.573Z,76.98
2018-04-08T22:17:59.146Z,77.58
2018-04-08T22:20:25.752Z,77.64
2018-04-08T22:22:52.220Z,74.57
2018-04-08T22:25:18.684Z,75.44
2018-04-08T22:27:45.319Z,75.68
2018-04-08T22:30:11.831Z,78.48
2018-04-08T22:32:38.329Z,73.70
2018-04-08T22:35:04.870Z,77.15
2018-04-08T22:37:31.329Z,77.71
2018-04-08T22:39:57.737Z,75.53
2018-04-08T22:42:24.236Z,75.67
2018-04-08T22:44:50.591Z,77.23
2018-04-08T22:47:17.482Z,77.75
2018-04-08T22:49:44.520Z,74.47
2018-04-08T22:52:11.436Z,78.41
2018-04-08T22:54:39.308Z,77.13
2018-04-08T22:57:06.578Z,73.61
2018-04-08T22:59:33.972Z,74.13
2018-04-08T23:02:01.526Z,74.12
2018-04-08T23:04:28.084Z,72.86
2018-04-08T23:06:55.660Z,74.13
2018-04-08T23:09:22.154Z,71.74
2018-04-08T23:11:48.607Z,70.27
2018-04-08T23:14:14.994Z,69.65
2018-04-08T23:16:41.589Z,70.56
2018-04-08T23:19:07.931Z,70.81
2018-04-08T23:21:34.354Z,71.71
2018-04-08T23:24:00.862Z,71.67
2018-04-08T23:26:27.435Z,71.75
2018-04-08T23:28:53.838Z,71.17
2018-04-08T23:31:20.211Z,73.97
2018-04-08T23:33:46.594Z,76.21
2018-04-08T23:36:13.034Z,75.24
2018-04-08T23:38:39.418Z,76.68
2018-04-08T23:41:05.746Z,74.80
2018-04-08T23:43:32.408Z,74.63
2018-04-08T23:45:58.953Z,75.14
2018-04-08T23:48:25.363Z,76.49
2018-04-08T23:50:51.872Z,79.43
2018-04-08T23:53:18.434Z,78.36
2018-04-08T23:55:44.932Z,77.63
2018-04-08T23:58:11.524Z,78.40
